createdAt,value
2023-09-05T00:01:56.838Z,17.79
2023-09-05T00:04:23.786Z,17.89
2023-09-05T00:06:50.573Z,17.89
2023-09-05T00:09:19.565Z,17.91
2023-09-05T00:11:47.102Z,17.81
2023-09-05T00:14:14.165Z,17.81
2023-09-05T00:16:40.941Z,17.72
2023-09-05T00:19:07.706Z,17.82
2023-09-05T00:21:34.412Z,17.85
2023-09-05T00:24:34.696Z,17.91
2023-09-05T00:27:07.659Z,17.91
2023-09-05T00:29:34.571Z,17.86
2023-09-05T00:32:02.217Z,18.03
2023-09-05T00:34:37.588Z,18.16
2023-09-05T00:39:42.501Z,18.36
2023-09-05T00:42:13.663Z,18.45
2023-09-05T00:44:40.528Z,18.43
2023-09-05T00:47:08.064Z,18.45
2023-09-05T00:49:42.996Z,18.51
2023-09-05T00:52:11.834Z,18.59
2023-09-05T00:54:39.116Z,18.68
2023-09-05T00:57:07.191Z,18.69
2023-09-05T00:59:34.065Z,18.65
2023-09-05T01:02:00.937Z,18.67
2023-09-05T01:04:27.856Z,18.63
2023-09-05T01:07:14.599Z,18.60
2023-09-05T01:09:52.242Z,18.66
2023-09-05T01:12:19.450Z,18.75
2023-09-05T01:14:46.229Z,18.79
2023-09-05T01:17:13.045Z,18.74
2023-09-05T01:22:23.078Z,18.73
2023-09-05T01:24:51.522Z,18.77
2023-09-05T01:27:20.791Z,18.76
2023-09-05T01:29:48.791Z,18.82
2023-09-05T01:32:16.629Z,18.79
2023-09-05T01:34:43.525Z,18.77
2023-09-05T01:37:15.830Z,18.77
2023-09-05T01:39:45.933Z,18.73
2023-09-05T01:42:12.711Z,18.63
2023-09-05T01:44:40.237Z,18.43
2023-09-05T01:47:07.453Z,18.45
2023-09-05T01:49:34.363Z,18.32
2023-09-05T01:52:01.103Z,18.28
2023-09-05T01:54:27.900Z,18.09
2023-09-05T01:56:54.695Z,17.98
2023-09-05T01:59:22.094Z,17.91
2023-09-05T02:01:48.996Z,17.73
2023-09-05T02:04:15.775Z,17.60
2023-09-05T02:06:42.553Z,17.54
2023-09-05T02:09:09.752Z,17.52
2023-09-05T02:11:36.514Z,17.48
2023-09-05T02:14:03.299Z,17.41
2023-09-05T02:16:30.152Z,17.23
2023-09-05T02:18:56.876Z,17.29
2023-09-05T02:21:23.561Z,17.19
2023-09-05T02:23:50.324Z,17.26
2023-09-05T02:26:17.275Z,17.18
2023-09-05T02:28:46.431Z,17.08
2023-09-05T02:31:13.377Z,17.12
2023-09-05T02:33:40.176Z,17.11
2023-09-05T02:36:20.014Z,17.03
2023-09-05T02:38:47.674Z,17.05
2023-09-05T02:41:18.390Z,16.95
2023-09-05T02:43:48.200Z,17.03
2023-09-05T02:46:15.983Z,17.17
2023-09-05T02:48:43.696Z,17.18
2023-09-05T02:51:13.889Z,17.13
2023-09-05T02:53:40.832Z,17.11
2023-09-05T02:56:07.855Z,17.08
2023-09-05T02:58:35.222Z,17.09
2023-09-05T03:01:04.095Z,17.07
2023-09-05T03:03:32.375Z,17.22
2023-09-05T03:06:11.949Z,17.14
2023-09-05T03:08:39.959Z,17.09
2023-09-05T03:11:06.751Z,17.12
2023-09-05T03:13:33.523Z,17.06
2023-09-05T03:16:00.364Z,17.09
2023-09-05T03:18:27.221Z,17.04
2023-09-05T03:20:54.245Z,17.01
2023-09-05T03:23:24.216Z,16.97
2023-09-05T03:25:52.504Z,16.89
2023-09-05T03:28:19.257Z,16.76
2023-09-05T03:38:27.434Z,16.66
2023-09-05T03:40:56.178Z,16.71
2023-09-05T03:43:23.170Z,16.74
2023-09-05T03:45:50.201Z,16.77
2023-09-05T03:48:17.587Z,16.73
2023-09-05T03:50:44.448Z,16.63
2023-09-05T03:53:11.231Z,16.60
2023-09-05T03:55:38.006Z,16.58
2023-09-05T03:58:05.884Z,16.51
2023-09-05T04:00:35.893Z,16.46
2023-09-05T04:03:06.030Z,16.49
2023-09-05T04:05:35.505Z,16.39
2023-09-05T04:08:03.029Z,16.40
2023-09-05T04:10:29.999Z,16.34
2023-09-05T04:12:57.439Z,16.21
2023-09-05T04:15:24.762Z,16.30
2023-09-05T04:17:54.177Z,16.36
2023-09-05T04:20:21.083Z,16.34
2023-09-05T04:22:47.903Z,16.39
2023-09-05T04:25:16.142Z,16.41
2023-09-05T04:30:21.969Z,16.22
2023-09-05T04:32:48.727Z,16.26
2023-09-05T04:35:15.512Z,16.21
2023-09-05T04:37:42.246Z,16.18
2023-09-05T04:40:09.490Z,16.23
2023-09-05T04:42:37.110Z,16.22
2023-09-05T04:45:04.105Z,16.16
2023-09-05T04:47:31.001Z,16.27
2023-09-05T04:50:01.090Z,16.24
2023-09-05T04:52:30.029Z,16.16
2023-09-05T04:54:58.512Z,16.22
2023-09-05T04:57:26.203Z,16.10
2023-09-05T04:59:58.646Z,16.29
2023-09-05T05:02:26.860Z,16.29
2023-09-05T05:04:55.151Z,16.29
2023-09-05T05:07:22.381Z,16.24
2023-09-05T05:09:49.265Z,16.26
2023-09-05T05:12:18.313Z,16.23
2023-09-05T05:14:45.167Z,16.25
2023-09-05T05:19:45.571Z,16.24
2023-09-05T05:22:12.529Z,16.25
2023-09-05T05:24:39.406Z,16.15
2023-09-05T05:27:06.121Z,16.11
2023-09-05T05:29:34.145Z,16.20
2023-09-05T05:32:02.688Z,16.19
2023-09-05T05:37:05.218Z,16.12
2023-09-05T05:39:31.931Z,16.17
2023-09-05T05:41:58.751Z,16.11
2023-09-05T05:44:25.510Z,16.15
2023-09-05T05:46:52.562Z,16.19
2023-09-05T05:49:19.265Z,16.20
2023-09-05T05:54:18.565Z,16.23
2023-09-05T05:56:45.545Z,16.26
2023-09-05T05:59:12.252Z,16.28
2023-09-05T06:01:39.201Z,16.35
2023-09-05T06:04:05.966Z,16.39
2023-09-05T06:06:33.436Z,16.51
2023-09-05T06:09:00.234Z,16.51
2023-09-05T06:11:27.011Z,16.60
2023-09-05T06:13:53.944Z,16.71
2023-09-05T06:16:22.216Z,16.74
2023-09-05T06:18:49.383Z,16.88
2023-09-05T06:21:16.254Z,17.06
2023-09-05T06:23:43.272Z,17.19
2023-09-05T06:26:10.084Z,17.45
2023-09-05T06:28:36.920Z,17.67
2023-09-05T06:31:05.498Z,17.91
2023-09-05T06:33:32.221Z,18.04
2023-09-05T06:35:58.928Z,18.18
2023-09-05T06:38:27.656Z,18.35
2023-09-05T06:40:54.606Z,18.59
2023-09-05T06:43:21.328Z,18.92
2023-09-05T06:45:48.081Z,19.15
2023-09-05T06:48:14.932Z,19.39
2023-09-05T06:50:41.762Z,19.57
2023-09-05T06:53:08.515Z,19.81
2023-09-05T06:58:14.276Z,20.34
2023-09-05T07:00:41.027Z,20.40
2023-09-05T07:03:07.834Z,20.57
2023-09-05T07:05:42.338Z,20.83
2023-09-05T07:10:42.725Z,21.25
2023-09-05T07:13:09.477Z,21.49
2023-09-05T07:15:36.401Z,21.70
2023-09-05T07:18:03.247Z,21.66
2023-09-05T07:20:30.046Z,21.76
2023-09-05T07:22:56.789Z,21.89
2023-09-05T07:25:23.539Z,22.11
2023-09-05T07:27:50.307Z,22.19
2023-09-05T07:30:17.789Z,22.26
2023-09-05T07:32:47.534Z,22.34
2023-09-05T07:35:14.319Z,22.24
2023-09-05T07:37:41.197Z,22.48
2023-09-05T07:40:08.594Z,22.94
2023-09-05T07:42:35.579Z,23.12
2023-09-05T07:45:03.949Z,23.12
2023-09-05T07:47:31.467Z,22.97
2023-09-05T07:49:58.325Z,23.15
2023-09-05T07:52:25.114Z,23.25
2023-09-05T07:54:51.845Z,23.49
2023-09-05T07:57:18.653Z,23.65
2023-09-05T07:59:46.098Z,23.70
2023-09-05T08:02:12.988Z,23.90
2023-09-05T08:04:41.332Z,23.78
2023-09-05T08:07:08.428Z,23.89
2023-09-05T08:09:35.303Z,23.84
2023-09-05T08:12:03.070Z,24.27
2023-09-05T08:14:30.384Z,24.10
2023-09-05T08:16:57.600Z,24.05
2023-09-05T08:19:24.483Z,24.09
2023-09-05T08:21:51.205Z,24.22
2023-09-05T08:24:17.943Z,24.09
2023-09-05T08:26:44.696Z,24.20
2023-09-05T08:29:11.459Z,24.33
2023-09-05T08:31:38.380Z,24.20
2023-09-05T08:34:05.198Z,24.03
2023-09-05T08:36:33.361Z,24.21
2023-09-05T08:39:00.956Z,24.33
2023-09-05T08:44:06.533Z,24.36
2023-09-05T08:46:33.477Z,24.53
2023-09-05T08:49:00.337Z,24.73
2023-09-05T08:51:33.257Z,25.07
2023-09-05T08:56:35.520Z,25.31
2023-09-05T08:59:02.978Z,25.30
2023-09-05T09:01:33.453Z,25.52
2023-09-05T09:04:02.461Z,25.76
2023-09-05T09:06:29.376Z,25.46
2023-09-05T09:08:57.440Z,25.46
2023-09-05T09:11:24.499Z,25.73
2023-09-05T09:13:58.974Z,26.15
2023-09-05T09:16:26.082Z,26.46
2023-09-05T09:19:04.233Z,26.42
2023-09-05T09:21:32.664Z,26.34
2023-09-05T09:24:09.327Z,26.69
2023-09-05T09:26:40.099Z,26.59
2023-09-05T09:29:11.200Z,26.77
2023-09-05T09:31:41.750Z,26.51
2023-09-05T09:34:09.356Z,26.40
2023-09-05T09:36:38.621Z,26.43
2023-09-05T09:41:48.460Z,26.74
2023-09-05T09:44:27.309Z,26.74
2023-09-05T09:46:55.997Z,27.02
2023-09-05T09:49:28.467Z,27.18
2023-09-05T09:51:57.255Z,27.27
2023-09-05T09:54:38.060Z,27.26
2023-09-05T09:57:06.376Z,27.58
2023-09-05T09:59:38.950Z,27.41
2023-09-05T10:02:16.675Z,27.68
2023-09-05T10:04:45.508Z,27.86
2023-09-05T10:07:17.273Z,27.83
2023-09-05T10:09:46.619Z,27.71
2023-09-05T10:12:15.821Z,27.52
2023-09-05T10:14:43.585Z,27.56
2023-09-05T10:17:11.070Z,27.84
2023-09-05T10:19:39.965Z,27.52
2023-09-05T10:22:07.912Z,27.60
2023-09-05T10:24:36.709Z,27.98
2023-09-05T10:27:05.197Z,28.00
2023-09-05T10:32:27.354Z,27.83
2023-09-05T10:34:57.089Z,28.08
2023-09-05T10:37:28.431Z,28.18
2023-09-05T10:39:57.369Z,28.06
2023-09-05T10:42:33.180Z,28.20
2023-09-05T10:45:18.464Z,28.35
2023-09-05T10:47:45.431Z,27.90
2023-09-05T10:50:14.020Z,28.28
2023-09-05T10:52:40.833Z,27.89
2023-09-05T10:55:30.914Z,28.05
2023-09-05T10:57:58.258Z,28.32
2023-09-05T11:00:28.393Z,28.37
2023-09-05T11:02:57.502Z,28.82
2023-09-05T11:05:28.524Z,29.31
2023-09-05T11:07:56.626Z,29.15
2023-09-05T11:10:34.851Z,29.19
2023-09-05T11:13:15.696Z,29.18
2023-09-05T11:15:46.728Z,29.08
2023-09-05T11:18:15.937Z,29.20
2023-09-05T11:20:49.959Z,29.13
2023-09-05T11:23:18.816Z,29.29
2023-09-05T11:25:48.005Z,29.21
2023-09-05T11:28:16.148Z,28.93
2023-09-05T11:30:47.696Z,28.66
2023-09-05T11:33:16.099Z,28.90
2023-09-05T11:35:46.805Z,28.97
2023-09-05T11:38:14.507Z,29.27
2023-09-05T11:40:42.690Z,29.58
2023-09-05T11:43:10.936Z,29.55
2023-09-05T11:45:39.158Z,29.24
2023-09-05T11:48:08.932Z,29.55
2023-09-05T11:50:36.093Z,29.73
2023-09-05T11:53:05.163Z,29.70
2023-09-05T11:55:32.316Z,29.76
2023-09-05T11:58:00.527Z,30.01
2023-09-05T12:00:28.186Z,30.19
2023-09-05T12:02:57.925Z,29.87
2023-09-05T12:05:24.839Z,29.91
2023-09-05T12:07:52.556Z,29.66
2023-09-05T12:10:19.725Z,29.36
2023-09-05T12:12:56.584Z,29.72
2023-09-05T12:15:31.177Z,29.86
2023-09-05T12:18:01.175Z,29.85
2023-09-05T12:20:28.051Z,29.90
2023-09-05T12:22:54.934Z,30.20
2023-09-05T12:25:26.378Z,30.22
2023-09-05T12:27:59.795Z,30.19
2023-09-05T12:30:26.547Z,30.14
2023-09-05T12:33:01.730Z,30.12
2023-09-05T12:38:08.847Z,30.06
2023-09-05T12:40:38.508Z,30.31
2023-09-05T12:43:05.648Z,30.13
2023-09-05T12:45:34.375Z,30.19
2023-09-05T12:48:01.500Z,30.05
2023-09-05T12:50:36.641Z,30.18
2023-09-05T12:53:04.277Z,29.75
2023-09-05T12:55:33.674Z,29.66
2023-09-05T12:58:04.393Z,29.68
2023-09-05T13:00:36.054Z,29.57
2023-09-05T13:03:04.477Z,29.59
2023-09-05T13:05:31.884Z,29.38
2023-09-05T13:07:59.903Z,29.51
2023-09-05T13:13:01.788Z,29.75
2023-09-05T13:15:30.960Z,29.81
2023-09-05T13:17:58.147Z,29.76
2023-09-05T13:20:25.071Z,29.80
2023-09-05T13:22:52.694Z,29.68
2023-09-05T13:25:20.772Z,29.63
2023-09-05T13:27:48.653Z,29.51
2023-09-05T13:30:16.218Z,29.46
2023-09-05T13:32:43.089Z,29.49
2023-09-05T13:35:10.822Z,29.36
2023-09-05T13:37:37.775Z,29.47
2023-09-05T13:40:05.390Z,29.35
2023-09-05T13:42:32.462Z,29.20
2023-09-05T13:44:59.255Z,29.22
2023-09-05T13:49:58.779Z,29.13
2023-09-05T13:52:25.612Z,29.05
2023-09-05T13:54:52.346Z,29.09
2023-09-05T13:57:19.127Z,29.02
2023-09-05T13:59:46.449Z,29.08
2023-09-05T14:02:13.321Z,29.14
2023-09-05T14:04:40.173Z,29.09
2023-09-05T14:07:08.311Z,29.13
2023-09-05T14:09:38.058Z,28.79
2023-09-05T14:12:05.417Z,28.98
2023-09-05T14:14:32.175Z,28.95
2023-09-05T14:16:58.897Z,29.08
2023-09-05T14:19:25.961Z,29.11
2023-09-05T14:21:52.761Z,28.88
2023-09-05T14:24:19.552Z,28.78
2023-09-05T14:26:47.864Z,29.04
2023-09-05T14:29:15.818Z,29.12
2023-09-05T14:31:43.211Z,29.19
2023-09-05T14:34:10.798Z,29.02
2023-09-05T14:36:37.870Z,28.76
2023-09-05T14:39:05.299Z,28.79
2023-09-05T14:41:32.993Z,28.79
2023-09-05T14:44:04.592Z,28.91
2023-09-05T14:46:33.837Z,28.94
2023-09-05T14:49:00.996Z,28.80
2023-09-05T14:51:27.869Z,28.77
2023-09-05T14:56:32.940Z,28.70
2023-09-05T14:58:59.712Z,28.74
2023-09-05T15:01:26.456Z,28.57
2023-09-05T15:06:30.335Z,28.25
2023-09-05T15:08:57.148Z,28.36
2023-09-05T15:13:57.320Z,28.24
2023-09-05T15:16:26.432Z,28.12
2023-09-05T15:18:53.170Z,28.09
2023-09-05T15:21:19.965Z,28.01
2023-09-05T15:23:46.681Z,27.85
2023-09-05T15:26:13.462Z,27.83
2023-09-05T15:28:41.770Z,27.85
2023-09-05T15:31:10.055Z,27.79
2023-09-05T15:33:36.953Z,27.70
2023-09-05T15:36:03.836Z,27.68
2023-09-05T15:38:30.758Z,27.66
2023-09-05T15:40:57.568Z,27.67
2023-09-05T15:43:24.297Z,27.63
2023-09-05T15:45:52.611Z,27.54
2023-09-05T15:48:19.560Z,27.44
2023-09-05T15:50:46.976Z,27.42
2023-09-05T15:53:19.652Z,27.37
2023-09-05T15:55:46.352Z,27.30
2023-09-05T15:58:13.180Z,27.24
2023-09-05T16:00:40.350Z,27.15
2023-09-05T16:03:07.372Z,27.11
2023-09-05T16:05:34.318Z,27.06
2023-09-05T16:08:01.573Z,26.96
2023-09-05T16:10:28.352Z,26.98
2023-09-05T16:12:55.125Z,26.92
2023-09-05T16:15:21.886Z,26.89
2023-09-05T16:17:48.688Z,26.73
2023-09-05T16:20:15.668Z,26.72
2023-09-05T16:22:42.421Z,26.56
2023-09-05T16:25:11.652Z,26.51
2023-09-05T16:27:38.812Z,26.45
2023-09-05T16:30:09.486Z,26.47
2023-09-05T16:32:36.800Z,26.44
2023-09-05T16:35:03.678Z,26.36
2023-09-05T16:37:30.438Z,26.25
2023-09-05T16:39:57.309Z,26.22
2023-09-05T16:42:24.082Z,26.15
2023-09-05T16:44:50.837Z,26.19
2023-09-05T16:47:17.652Z,26.12
2023-09-05T16:49:44.413Z,26.10
2023-09-05T16:52:11.349Z,26.07
2023-09-05T16:57:16.400Z,25.97
2023-09-05T16:59:43.172Z,25.89
2023-09-05T17:02:09.973Z,25.88
2023-09-05T17:04:38.049Z,25.80
2023-09-05T17:07:05.794Z,25.76
2023-09-05T17:09:33.012Z,25.70
2023-09-05T17:11:59.939Z,25.69
2023-09-05T17:14:27.494Z,25.64
2023-09-05T17:16:54.262Z,25.59
2023-09-05T17:19:21.037Z,25.53
2023-09-05T17:21:47.807Z,25.45
2023-09-05T17:24:14.549Z,25.38
2023-09-05T17:26:41.257Z,25.36
2023-09-05T17:29:07.985Z,25.28
2023-09-05T17:31:35.117Z,25.18
2023-09-05T17:34:02.561Z,25.16
2023-09-05T17:36:29.337Z,25.04
2023-09-05T17:38:56.167Z,24.93
2023-09-05T17:41:22.946Z,24.95
2023-09-05T17:43:51.170Z,24.90
2023-09-05T17:46:17.952Z,24.87
2023-09-05T17:48:44.817Z,24.78
2023-09-05T17:51:12.827Z,24.76
2023-09-05T17:53:39.659Z,24.72
2023-09-05T17:56:06.780Z,24.64
2023-09-05T17:58:33.560Z,24.62
2023-09-05T18:01:00.362Z,24.58
2023-09-05T18:03:27.242Z,24.53
2023-09-05T18:05:54.096Z,24.43
2023-09-05T18:08:20.910Z,24.34
2023-09-05T18:10:47.820Z,24.27
2023-09-05T18:13:14.966Z,24.11
2023-09-05T18:15:42.928Z,23.97
2023-09-05T18:18:10.613Z,23.93
2023-09-05T18:20:41.255Z,23.75
2023-09-05T18:23:08.103Z,23.70
2023-09-05T18:25:34.852Z,23.65
2023-09-05T18:28:01.590Z,23.59
2023-09-05T18:30:28.547Z,23.46
2023-09-05T18:32:55.320Z,23.41
2023-09-05T18:35:22.130Z,23.27
2023-09-05T18:37:48.972Z,23.11
2023-09-05T18:40:15.818Z,23.00
2023-09-05T18:42:42.759Z,22.91
2023-09-05T18:45:11.023Z,22.76
2023-09-05T18:47:38.547Z,22.78
2023-09-05T18:50:06.173Z,22.58
2023-09-05T18:52:32.940Z,22.46
2023-09-05T18:54:59.890Z,22.29
2023-09-05T18:57:26.724Z,22.13
2023-09-05T18:59:53.503Z,22.04
2023-09-05T19:02:26.550Z,22.03
2023-09-05T19:04:53.583Z,21.95
2023-09-05T19:07:20.335Z,22.08
2023-09-05T19:09:47.140Z,21.94
2023-09-05T19:12:15.043Z,21.91
2023-09-05T19:14:41.809Z,21.85
2023-09-05T19:17:08.569Z,21.84
2023-09-05T19:19:36.398Z,21.94
2023-09-05T19:22:05.202Z,21.95
2023-09-05T19:27:12.248Z,21.97
2023-09-05T19:29:39.056Z,21.93
2023-09-05T19:32:06.318Z,21.90
2023-09-05T19:34:34.112Z,21.84
2023-09-05T19:37:00.963Z,21.74
2023-09-05T19:39:30.580Z,21.65
2023-09-05T19:41:58.406Z,21.65
2023-09-05T19:44:25.232Z,21.65
2023-09-05T19:46:52.052Z,21.68
2023-09-05T19:49:18.776Z,21.76
2023-09-05T19:51:45.583Z,21.72
2023-09-05T19:56:44.640Z,21.53
2023-09-05T19:59:11.375Z,21.35
2023-09-05T20:01:40.551Z,21.22
2023-09-05T20:04:07.944Z,21.09
2023-09-05T20:06:37.344Z,21.05
2023-09-05T20:09:05.864Z,20.90
2023-09-05T20:11:34.816Z,20.82
2023-09-05T20:14:02.522Z,20.76
2023-09-05T20:16:29.358Z,20.65
2023-09-05T20:18:56.227Z,20.59
2023-09-05T20:23:54.214Z,20.42
2023-09-05T20:26:20.997Z,20.40
2023-09-05T20:28:47.733Z,20.39
2023-09-05T20:31:14.520Z,20.13
2023-09-05T20:33:41.322Z,20.10
2023-09-05T20:36:09.135Z,20.10
2023-09-05T20:38:36.177Z,19.97
2023-09-05T20:43:40.485Z,19.86
2023-09-05T20:46:07.404Z,19.89
2023-09-05T20:48:34.519Z,20.13
2023-09-05T20:51:01.617Z,20.07
2023-09-05T20:53:28.422Z,19.86
2023-09-05T20:55:55.863Z,19.61
2023-09-05T20:58:22.684Z,19.50
2023-09-05T21:00:49.665Z,19.47
2023-09-05T21:03:16.567Z,19.29
2023-09-05T21:05:43.331Z,19.07
2023-09-05T21:08:10.082Z,18.93
2023-09-05T21:10:37.476Z,18.91
2023-09-05T21:13:05.310Z,18.91
2023-09-05T21:15:32.113Z,18.81
2023-09-05T21:17:58.938Z,18.78
2023-09-05T21:20:25.862Z,18.72
2023-09-05T21:22:52.716Z,18.72
2023-09-05T21:25:19.469Z,18.74
2023-09-05T21:27:46.599Z,18.75
2023-09-05T21:30:13.396Z,18.62
2023-09-05T21:32:40.790Z,18.58
2023-09-05T21:35:08.274Z,18.52
2023-09-05T21:40:13.260Z,18.59
2023-09-05T21:42:42.285Z,18.65
2023-09-05T21:45:09.969Z,18.64
2023-09-05T21:50:08.654Z,18.64
2023-09-05T21:52:35.403Z,18.51
2023-09-05T21:55:02.215Z,18.39
2023-09-05T21:57:29.068Z,18.63
2023-09-05T21:59:55.754Z,18.58
2023-09-05T22:02:22.575Z,18.46
2023-09-05T22:04:49.410Z,18.36
2023-09-05T22:07:16.237Z,18.36
2023-09-05T22:09:43.079Z,18.30
2023-09-05T22:12:09.842Z,18.23
2023-09-05T22:14:36.597Z,18.18
2023-09-05T22:17:03.374Z,18.03
2023-09-05T22:19:32.531Z,18.06
2023-09-05T22:22:05.654Z,17.97
2023-09-05T22:24:33.442Z,17.85
2023-09-05T22:29:33.053Z,17.83
2023-09-05T22:32:00.589Z,17.81
2023-09-05T22:34:27.532Z,17.76
2023-09-05T22:39:27.365Z,17.57
2023-09-05T22:41:54.148Z,17.47
2023-09-05T22:44:20.881Z,17.50
2023-09-05T22:46:47.632Z,17.76
2023-09-05T22:49:14.387Z,17.84
2023-09-05T22:51:42.736Z,17.84
2023-09-05T22:54:10.813Z,17.72
2023-09-05T22:56:39.362Z,17.61
2023-09-05T22:59:07.864Z,17.68
2023-09-05T23:01:34.633Z,17.57
2023-09-05T23:04:01.484Z,17.67
2023-09-05T23:06:28.383Z,17.54
2023-09-05T23:08:55.184Z,17.30
2023-09-05T23:11:21.949Z,17.21
2023-09-05T23:13:48.780Z,17.09
2023-09-05T23:16:17.116Z,17.05
2023-09-05T23:18:46.085Z,17.05
2023-09-05T23:21:13.134Z,17.02
2023-09-05T23:23:39.877Z,16.87
2023-09-05T23:26:08.959Z,16.82
2023-09-05T23:28:36.602Z,16.85
2023-09-05T23:31:03.589Z,16.92
2023-09-05T23:33:33.011Z,16.93
2023-09-05T23:35:59.741Z,16.76
2023-09-05T23:38:27.915Z,16.68
2023-09-05T23:40:54.824Z,16.65
2023-09-05T23:43:21.593Z,16.60
2023-09-05T23:45:53.052Z,16.60
2023-09-05T23:48:20.709Z,16.45
2023-09-05T23:50:47.545Z,16.53
2023-09-05T23:53:14.565Z,16.45
2023-09-05T23:55:45.790Z,16.43
2023-09-05T23:58:13.009Z,16.31
